createdAt,value
2018-12-14T00:00:14.573Z,16.93
2018-12-14T00:02:44.432Z,15.60
2018-12-14T00:05:14.193Z,15.78
2018-12-14T00:07:43.079Z,16.32
2018-12-14T00:10:12.308Z,17.15
2018-12-14T00:12:51.396Z,16.95
2018-12-14T00:15:20.200Z,15.83
2018-12-14T00:17:49.008Z,15.68
2018-12-14T00:20:17.817Z,15.98
2018-12-14T00:22:47.597Z,15.30
2018-12-14T00:25:16.452Z,16.45
2018-12-14T00:27:45.332Z,15.48
2018-12-14T00:30:15.076Z,16.48
2018-12-14T00:32:43.888Z,14.95
2018-12-14T00:35:13.038Z,15.50
2018-12-14T00:37:46.605Z,16.15
2018-12-14T00:40:16.336Z,14.73
2018-12-14T00:42:47.141Z,15.68
2018-12-14T00:45:17.828Z,16.00
2018-12-14T00:47:47.589Z,14.70
2018-12-14T00:50:16.487Z,15.88
2018-12-14T00:52:45.376Z,16.95
2018-12-14T00:55:15.204Z,14.73
2018-12-14T00:57:50.764Z,16.23
2018-12-14T01:00:23.948Z,16.87
2018-12-14T01:02:52.752Z,16.60
2018-12-14T01:23:43.768Z,14.50
2018-12-14T01:44:40.497Z,15.23
2018-12-14T02:05:37.404Z,17.00
2018-12-14T02:44:38.624Z,14.95
2018-12-14T02:47:07.532Z,15.63
2018-12-14T03:07:40.933Z,15.30
2018-12-14T03:28:26.694Z,15.63
2018-12-14T03:49:00.328Z,14.20
2018-12-14T04:09:52.121Z,14.07
2018-12-14T04:30:37.185Z,13.65
2018-12-14T04:51:10.455Z,15.00
2018-12-14T05:12:08.991Z,13.35
2018-12-14T05:51:03.870Z,15.40
2018-12-14T06:11:54.357Z,15.65
2018-12-14T06:14:23.154Z,14.13
2018-12-14T06:53:36.478Z,14.38
2018-12-14T07:14:10.217Z,15.35
2018-12-14T07:38:12.744Z,17.87
2018-12-14T07:40:58.172Z,17.40
2018-12-14T07:43:35.097Z,15.00
2018-12-14T07:46:03.901Z,16.20
2018-12-14T07:48:35.741Z,16.52
2018-12-14T07:51:04.657Z,16.90
2018-12-14T07:53:42.109Z,15.48
2018-12-14T07:56:11.885Z,16.62
2018-12-14T07:58:41.269Z,15.18
2018-12-14T08:01:10.089Z,14.40
2018-12-14T08:03:38.906Z,14.07
2018-12-14T08:06:18.181Z,16.32
2018-12-14T08:08:46.973Z,16.90
2018-12-14T08:11:15.869Z,15.70
2018-12-14T08:13:44.685Z,16.48
2018-12-14T08:16:13.602Z,15.70
2018-12-14T08:18:43.305Z,15.40
2018-12-14T08:21:17.834Z,14.65
2018-12-14T08:23:48.569Z,20.02
2018-12-14T08:26:18.431Z,18.48
2018-12-14T08:28:49.174Z,16.30
2018-12-14T08:31:18.121Z,15.10
2018-12-14T08:34:01.090Z,14.55
2018-12-14T08:36:36.894Z,16.25
2018-12-14T08:39:13.646Z,17.85
2018-12-14T08:41:48.781Z,15.23
2018-12-14T08:44:18.498Z,15.85
2018-12-14T08:46:47.566Z,15.20
2018-12-14T08:49:48.366Z,15.65
2018-12-14T08:52:30.877Z,15.40
2018-12-14T08:54:59.962Z,14.10
2018-12-14T08:57:31.906Z,16.48
2018-12-14T09:00:03.375Z,15.28
2018-12-14T09:02:48.810Z,16.65
2018-12-14T09:05:18.574Z,15.20
2018-12-14T09:07:48.361Z,16.00
2018-12-14T09:10:20.410Z,16.77
2018-12-14T09:12:49.246Z,16.10
2018-12-14T09:15:18.947Z,14.85
2018-12-14T09:17:54.619Z,15.95
2018-12-14T09:20:27.407Z,16.35
2018-12-14T09:23:22.274Z,15.40
2018-12-14T09:25:53.066Z,16.45
2018-12-14T09:28:27.430Z,14.80
2018-12-14T09:30:56.288Z,17.70
2018-12-14T09:33:48.992Z,15.48
2018-12-14T09:36:19.055Z,14.80
2018-12-14T09:38:48.848Z,16.85
2018-12-14T09:41:17.722Z,14.75
2018-12-14T09:43:54.327Z,15.88
2018-12-14T09:46:37.267Z,14.30
2018-12-14T09:49:09.958Z,14.87
2018-12-14T09:51:38.830Z,16.95
2018-12-14T09:54:14.310Z,14.63
2018-12-14T09:56:43.120Z,16.77
2018-12-14T09:59:12.017Z,15.48
2018-12-14T10:01:42.730Z,12.65
2018-12-14T10:04:16.466Z,15.60
2018-12-14T10:06:45.288Z,15.60
2018-12-14T10:09:26.534Z,16.15
2018-12-14T10:11:58.378Z,16.10
2018-12-14T10:14:33.924Z,13.60
2018-12-14T10:17:06.158Z,15.35
2018-12-14T10:19:34.955Z,15.32
2018-12-14T10:22:03.810Z,15.50
2018-12-14T10:24:32.666Z,15.35
2018-12-14T10:27:03.494Z,15.58
2018-12-14T10:29:33.229Z,15.43
2018-12-14T10:32:02.066Z,16.00
2018-12-14T10:34:32.843Z,15.43
2018-12-14T10:37:01.651Z,15.63
2018-12-14T10:39:32.370Z,13.78
2018-12-14T10:42:07.157Z,13.75
2018-12-14T10:44:46.597Z,14.75
2018-12-14T10:47:26.446Z,16.17
2018-12-14T10:50:04.606Z,15.40
2018-12-14T10:52:34.675Z,15.25
2018-12-14T10:55:07.977Z,15.58
2018-12-14T10:57:47.541Z,13.70
2018-12-14T11:00:23.785Z,14.95
2018-12-14T11:02:56.922Z,13.90
2018-12-14T11:05:27.682Z,12.65
2018-12-14T11:07:57.446Z,14.80
2018-12-14T11:10:32.894Z,12.47
2018-12-14T11:13:04.866Z,14.47
2018-12-14T11:15:38.574Z,14.03
2018-12-14T11:18:08.415Z,14.28
2018-12-14T11:20:37.274Z,15.40
2018-12-14T11:23:06.207Z,15.45
2018-12-14T11:25:41.321Z,14.73
2018-12-14T11:31:10.581Z,16.05
2018-12-14T11:33:41.421Z,15.48
2018-12-14T11:36:11.241Z,15.48
2018-12-14T11:38:40.978Z,13.20
2018-12-14T11:41:09.817Z,14.53
2018-12-14T11:43:48.301Z,13.48
2018-12-14T11:46:26.518Z,15.25
2018-12-14T11:49:00.666Z,11.15
2018-12-14T11:51:47.357Z,12.55
2018-12-14T11:54:24.486Z,11.38
2018-12-14T11:56:55.153Z,10.18
2018-12-14T11:59:24.029Z,10.93
2018-12-14T12:01:53.786Z,11.88
2018-12-14T12:04:24.481Z,11.08
2018-12-14T12:06:55.261Z,9.25
2018-12-14T12:09:27.141Z,11.20
2018-12-14T12:11:57.937Z,11.12
2018-12-14T12:14:32.561Z,10.68
2018-12-14T12:17:02.377Z,11.33
2018-12-14T12:19:31.178Z,12.40
2018-12-14T12:22:04.053Z,9.45
2018-12-14T12:24:34.785Z,10.63
2018-12-14T12:27:08.457Z,10.53
2018-12-14T12:29:44.177Z,9.18
2018-12-14T12:32:15.015Z,8.30
2018-12-14T12:34:44.843Z,10.78
2018-12-14T12:37:14.573Z,9.60
2018-12-14T12:39:45.288Z,10.58
2018-12-14T12:42:26.466Z,14.20
2018-12-14T12:45:00.477Z,12.53
2018-12-14T12:47:29.338Z,16.62
2018-12-14T12:49:58.165Z,13.65
2018-12-14T12:52:27.017Z,13.93
2018-12-14T12:54:56.729Z,13.58
2018-12-14T12:57:26.512Z,13.08
2018-12-14T12:59:59.917Z,10.82
2018-12-14T13:02:28.720Z,11.63
2018-12-14T13:04:58.525Z,12.18
2018-12-14T13:07:29.333Z,11.85
2018-12-14T13:09:58.173Z,11.57
2018-12-14T13:12:27.052Z,11.28
2018-12-14T13:14:55.901Z,11.73
2018-12-14T13:17:24.721Z,11.88
2018-12-14T13:19:54.481Z,13.75
2018-12-14T13:22:23.286Z,12.65
2018-12-14T13:24:56.153Z,13.28
2018-12-14T13:27:27.025Z,10.65
2018-12-14T13:29:55.833Z,14.73
2018-12-14T13:32:25.597Z,11.83
2018-12-14T13:34:55.328Z,12.63
2018-12-14T13:37:26.048Z,11.60
2018-12-14T13:39:56.789Z,11.38
2018-12-14T13:42:36.838Z,12.58
2018-12-14T13:45:06.645Z,12.35
2018-12-14T13:47:38.447Z,12.40
2018-12-14T13:50:08.305Z,12.43
2018-12-14T13:52:40.765Z,12.82
2018-12-14T13:55:13.462Z,12.43
2018-12-14T13:57:43.385Z,12.98
2018-12-14T14:00:13.197Z,12.70
2018-12-14T14:02:46.753Z,12.90
2018-12-14T14:05:27.137Z,10.75
2018-12-14T14:07:59.137Z,10.53
2018-12-14T14:10:28.129Z,11.53
2018-12-14T14:13:00.585Z,12.60
2018-12-14T14:15:32.557Z,13.13
2018-12-14T14:18:03.365Z,13.15
2018-12-14T14:20:32.229Z,12.05
2018-12-14T14:23:02.328Z,13.28
2018-12-14T14:25:33.686Z,12.82
2018-12-14T14:28:08.461Z,11.30
2018-12-14T14:30:41.341Z,12.90
2018-12-14T14:33:13.193Z,42.00
2018-12-14T14:35:42.009Z,23.30
2018-12-14T14:38:11.793Z,13.13
2018-12-14T14:40:41.613Z,12.18
2018-12-14T14:43:12.441Z,11.12
2018-12-14T14:45:42.277Z,11.35
2018-12-14T14:48:11.105Z,10.78
2018-12-14T14:50:43.929Z,11.40
2018-12-14T14:53:12.797Z,9.85
2018-12-14T14:55:44.917Z,11.53
2018-12-14T14:58:24.481Z,9.43
2018-12-14T15:00:59.349Z,10.58
2018-12-14T15:03:30.169Z,9.83
2018-12-14T15:05:59.293Z,11.30
2018-12-14T15:08:32.785Z,10.60
2018-12-14T15:11:02.453Z,11.08
2018-12-14T15:13:31.289Z,12.28
2018-12-14T15:16:01.038Z,9.23
2018-12-14T15:18:40.383Z,11.25
2018-12-14T15:21:12.485Z,11.00
2018-12-14T15:23:41.289Z,11.20
2018-12-14T15:26:36.233Z,12.07
2018-12-14T15:29:06.014Z,10.25
2018-12-14T15:31:36.821Z,11.22
2018-12-14T15:34:05.666Z,10.10
2018-12-14T15:39:13.035Z,10.85
2018-12-14T15:41:42.827Z,10.85
2018-12-14T15:44:12.676Z,10.53
2018-12-14T15:46:42.434Z,10.53
2018-12-14T15:49:13.252Z,10.40
2018-12-14T15:51:42.077Z,9.30
2018-12-14T15:54:18.258Z,10.50
2018-12-14T15:56:52.702Z,10.93
2018-12-14T15:59:22.598Z,10.98
2018-12-14T16:01:51.439Z,10.05
2018-12-14T16:04:21.177Z,10.08
2018-12-14T16:06:52.561Z,10.00
2018-12-14T16:09:21.397Z,9.78
2018-12-14T16:11:52.153Z,9.03
2018-12-14T16:14:21.039Z,9.58
2018-12-14T16:16:50.881Z,10.25
2018-12-14T16:19:19.783Z,9.15
2018-12-14T16:21:48.698Z,9.20
2018-12-14T16:24:18.582Z,9.25
2018-12-14T16:26:48.371Z,10.30
2018-12-14T16:29:18.148Z,8.68
2018-12-14T16:31:47.046Z,8.75
2018-12-14T16:34:16.854Z,8.68
2018-12-14T16:36:46.599Z,8.73
2018-12-14T16:39:16.290Z,9.25
2018-12-14T16:41:45.140Z,7.95
2018-12-14T16:44:13.977Z,8.65
2018-12-14T16:46:46.342Z,9.98
2018-12-14T16:49:15.158Z,8.60
2018-12-14T16:51:44.011Z,9.13
2018-12-14T16:54:13.846Z,9.80
2018-12-14T16:56:42.647Z,8.65
2018-12-14T16:59:14.863Z,8.65
2018-12-14T17:01:43.774Z,10.03
2018-12-14T17:04:24.966Z,8.38
2018-12-14T17:06:53.782Z,8.50
2018-12-14T17:09:22.578Z,9.08
2018-12-14T17:11:53.407Z,8.45
2018-12-14T17:14:22.199Z,8.55
2018-12-14T17:16:59.606Z,10.35
2018-12-14T17:19:33.727Z,8.88
2018-12-14T17:22:03.496Z,8.43
2018-12-14T17:24:33.302Z,7.25
2018-12-14T17:27:04.176Z,8.15
2018-12-14T17:29:33.875Z,8.00
2018-12-14T17:32:04.632Z,9.00
2018-12-14T17:34:38.160Z,9.65
2018-12-14T17:37:06.976Z,9.45
2018-12-14T17:39:35.767Z,8.48
2018-12-14T17:42:04.643Z,8.73
2018-12-14T17:44:34.491Z,8.68
2018-12-14T17:47:04.443Z,8.70
2018-12-14T17:49:33.358Z,8.45
2018-12-14T17:52:05.325Z,8.15
2018-12-14T17:54:43.867Z,10.10
2018-12-14T17:57:39.255Z,8.93
2018-12-14T18:00:13.395Z,9.58
2018-12-14T18:02:44.187Z,7.67
2018-12-14T18:05:19.623Z,9.03
2018-12-14T18:07:49.523Z,9.35
2018-12-14T18:10:18.435Z,9.93
2018-12-14T18:12:52.751Z,10.00
2018-12-14T18:15:34.227Z,8.35
2018-12-14T18:18:09.628Z,10.60
2018-12-14T18:20:38.444Z,8.23
2018-12-14T18:23:14.226Z,9.20
2018-12-14T18:25:47.292Z,9.90
2018-12-14T18:28:16.139Z,8.98
2018-12-14T18:30:44.959Z,10.53
2018-12-14T18:33:13.815Z,9.65
2018-12-14T18:35:43.561Z,9.98
2018-12-14T18:38:12.343Z,9.90
2018-12-14T18:40:46.935Z,9.98
2018-12-14T18:43:19.655Z,9.80
2018-12-14T18:45:53.215Z,10.30
2018-12-14T18:48:19.194Z,11.63
2018-12-14T18:51:11.243Z,10.40
2018-12-14T18:53:47.751Z,9.98
2018-12-14T18:56:17.487Z,9.93
2018-12-14T18:58:46.287Z,10.20
2018-12-14T19:01:18.403Z,10.50
2018-12-14T19:03:47.211Z,10.95
2018-12-14T19:06:19.919Z,10.23
2018-12-14T19:08:52.591Z,10.63
2018-12-14T19:11:21.395Z,9.63
2018-12-14T19:13:50.243Z,11.33
2018-12-14T19:16:22.887Z,11.10
2018-12-14T19:18:59.896Z,11.05
2018-12-14T19:21:28.792Z,11.08
2018-12-14T19:24:00.576Z,11.08
2018-12-14T19:26:32.267Z,12.58
2018-12-14T19:29:02.236Z,11.15
2018-12-14T19:31:31.143Z,11.35
2018-12-14T19:34:06.200Z,12.75
2018-12-14T19:36:40.928Z,11.60
2018-12-14T19:39:09.779Z,11.20
2018-12-14T19:41:38.667Z,11.88
2018-12-14T19:44:08.383Z,11.70
2018-12-14T19:46:37.180Z,11.95
2018-12-14T19:49:26.064Z,11.80
2018-12-14T19:51:58.887Z,11.30
2018-12-14T19:54:28.067Z,10.85
2018-12-14T19:57:03.787Z,11.90
2018-12-14T19:59:33.563Z,10.78
2018-12-14T20:02:07.561Z,11.55
2018-12-14T20:04:36.393Z,12.13
2018-12-14T20:07:08.828Z,10.18
2018-12-14T20:09:38.540Z,11.03
2018-12-14T20:12:13.187Z,12.03
2018-12-14T20:14:45.047Z,12.20
2018-12-14T20:17:16.792Z,11.33
2018-12-14T20:19:45.603Z,11.03
2018-12-14T20:22:15.067Z,12.18
2018-12-14T20:24:43.875Z,13.35
2018-12-14T20:27:13.663Z,12.00
2018-12-14T20:29:44.447Z,12.60
2018-12-14T20:32:13.307Z,12.07
2018-12-14T20:34:45.363Z,11.93
2018-12-14T20:37:16.379Z,13.18
2018-12-14T20:39:46.147Z,13.90
2018-12-14T20:42:15.047Z,11.80
2018-12-14T20:44:45.769Z,11.20
2018-12-14T20:47:17.859Z,12.05
2018-12-14T20:49:46.687Z,13.88
2018-12-14T20:52:21.147Z,12.73
2018-12-14T20:54:49.991Z,11.90
2018-12-14T20:57:20.823Z,11.53
2018-12-14T20:59:54.267Z,13.38
2018-12-14T21:02:23.103Z,12.45
2018-12-14T21:04:56.298Z,13.25
2018-12-14T21:07:26.279Z,12.15
2018-12-14T21:09:56.027Z,14.43
2018-12-14T21:12:27.080Z,12.85
2018-12-14T21:15:01.849Z,12.78
2018-12-14T21:17:30.655Z,13.62
2018-12-14T21:20:00.431Z,12.75
2018-12-14T21:22:36.927Z,13.30
2018-12-14T21:25:09.015Z,14.00
2018-12-14T21:27:38.771Z,13.58
2018-12-14T21:30:13.472Z,13.85
2018-12-14T21:32:44.418Z,12.85
2018-12-14T21:35:21.475Z,12.53
2018-12-14T21:37:53.491Z,13.53
2018-12-14T21:40:22.391Z,13.40
2018-12-14T21:42:51.396Z,12.75
2018-12-14T21:45:20.263Z,12.53
2018-12-14T21:47:49.068Z,13.48
2018-12-14T21:50:18.851Z,11.73
2018-12-14T21:52:52.839Z,13.10
2018-12-14T21:55:25.603Z,13.43
2018-12-14T21:57:55.560Z,12.82
2018-12-14T22:00:35.400Z,13.90
2018-12-14T22:03:04.956Z,14.15
2018-12-14T22:05:34.711Z,12.45
2018-12-14T22:08:03.699Z,15.83
2018-12-14T22:10:33.543Z,14.78
2018-12-14T22:13:03.498Z,14.63
2018-12-14T22:15:33.251Z,15.98
2018-12-14T22:18:02.138Z,14.70
2018-12-14T22:20:36.951Z,13.62
2018-12-14T22:23:25.503Z,14.55
2018-12-14T22:26:02.943Z,12.85
2018-12-14T22:28:31.736Z,13.43
2018-12-14T22:31:03.807Z,14.18
2018-12-14T22:33:32.655Z,14.43
2018-12-14T22:36:01.716Z,15.93
2018-12-14T22:38:30.543Z,14.98
2018-12-14T22:41:03.512Z,16.17
2018-12-14T22:43:44.803Z,15.32
2018-12-14T22:46:21.195Z,15.08
2018-12-14T22:48:50.015Z,14.33
2018-12-14T22:51:20.919Z,15.68
2018-12-14T22:53:53.347Z,18.52
2018-12-14T22:56:23.079Z,15.03
2018-12-14T22:58:51.972Z,14.28
2018-12-14T23:01:25.163Z,15.55
2018-12-14T23:03:55.995Z,17.12
2018-12-14T23:06:24.823Z,15.95
2018-12-14T23:08:53.658Z,16.17
2018-12-14T23:11:22.466Z,17.27
2018-12-14T23:13:53.223Z,16.05
2018-12-14T23:16:23.935Z,17.45
2018-12-14T23:18:53.715Z,16.23
2018-12-14T23:21:23.523Z,18.05
2018-12-14T23:23:53.271Z,15.78
2018-12-14T23:26:26.459Z,15.70
2018-12-14T23:28:55.343Z,18.00
2018-12-14T23:31:28.063Z,16.57
2018-12-14T23:33:57.969Z,15.20
2018-12-14T23:36:28.762Z,17.52
2018-12-14T23:39:01.313Z,16.10
2018-12-14T23:41:30.219Z,15.25
2018-12-14T23:44:00.963Z,15.08
2018-12-14T23:46:30.780Z,16.00
2018-12-14T23:49:01.639Z,15.58
2018-12-14T23:51:30.451Z,16.10
2018-12-14T23:54:01.271Z,14.87
2018-12-14T23:56:31.043Z,15.28
2018-12-14T23:59:00.939Z,15.40
